createdAt,value
2018-03-11T10:24:03.420Z,3.90
2018-03-11T10:26:31.758Z,3.70
2018-03-11T10:29:00.165Z,3.60
2018-03-11T10:31:28.887Z,3.47
2018-03-11T10:33:56.737Z,3.10
2018-03-11T10:36:26.005Z,3.67
2018-03-11T10:38:54.266Z,3.40
2018-03-11T10:41:22.334Z,3.07
2018-03-11T10:43:51.341Z,2.60
2018-03-11T10:46:20.013Z,3.20
2018-03-11T10:48:47.901Z,2.77
2018-03-11T10:51:15.704Z,2.87
2018-03-11T10:53:43.651Z,2.67
2018-03-11T10:56:11.686Z,2.90
2018-03-11T10:58:39.536Z,2.90
2018-03-11T11:01:13.158Z,2.90
2018-03-11T11:03:46.965Z,3.20
2018-03-11T11:06:15.033Z,2.87
2018-03-11T11:08:43.501Z,2.93
2018-03-11T11:11:11.507Z,3.07
2018-03-11T11:13:40.112Z,3.57
2018-03-11T11:16:08.048Z,3.53
2018-03-11T11:18:36.905Z,3.77
2018-03-11T11:21:04.884Z,3.40
2018-03-11T11:23:33.753Z,3.10
2018-03-11T11:26:01.500Z,3.37
2018-03-11T11:28:30.044Z,3.70
2018-03-11T11:30:58.095Z,3.70
2018-03-11T11:33:27.027Z,4.20
2018-03-11T11:35:54.864Z,3.57
2018-03-11T11:38:23.220Z,3.60
2018-03-11T11:40:52.051Z,3.60
2018-03-11T11:43:20.504Z,3.00
2018-03-11T11:45:48.507Z,2.73
2018-03-11T11:48:17.505Z,2.80
2018-03-11T11:50:45.528Z,2.40
2018-03-11T11:53:14.155Z,2.43
2018-03-11T11:55:42.683Z,2.30
2018-03-11T11:58:10.779Z,2.20
2018-03-11T12:00:38.721Z,2.50
2018-03-11T12:03:06.907Z,2.20
2018-03-11T12:05:35.731Z,2.37
2018-03-11T12:08:04.380Z,2.60
2018-03-11T12:10:32.271Z,2.90
2018-03-11T12:13:00.229Z,4.50
2018-03-11T12:15:28.796Z,2.60
2018-03-11T12:17:58.189Z,3.10
2018-03-11T12:20:26.236Z,2.00
2018-03-11T12:22:54.488Z,2.50
2018-03-11T12:25:22.169Z,2.20
2018-03-11T12:27:50.212Z,2.20
2018-03-11T12:30:18.093Z,2.07
2018-03-11T12:32:46.139Z,1.83
2018-03-11T12:35:14.059Z,1.63
2018-03-11T12:37:41.950Z,1.50
2018-03-11T12:40:10.385Z,1.80
2018-03-11T12:42:38.936Z,2.00
2018-03-11T12:45:07.342Z,2.00
2018-03-11T12:47:36.059Z,2.13
2018-03-11T12:50:04.220Z,1.60
2018-03-11T12:52:32.047Z,2.07
2018-03-11T12:55:00.183Z,1.93
2018-03-11T12:57:28.666Z,1.40
2018-03-11T12:59:57.434Z,1.40
2018-03-11T13:02:26.039Z,1.60
2018-03-11T13:04:55.414Z,1.80
2018-03-11T13:07:23.710Z,2.10
2018-03-11T13:09:52.482Z,1.53
2018-03-11T13:12:21.266Z,1.80
2018-03-11T13:14:50.093Z,1.97
2018-03-11T13:17:19.920Z,1.90
2018-03-11T13:19:48.127Z,1.40
2018-03-11T13:22:16.484Z,1.57
2018-03-11T13:24:45.116Z,1.70
2018-03-11T13:27:13.285Z,1.60
2018-03-11T13:29:41.659Z,1.90
2018-03-11T13:32:21.915Z,1.60
2018-03-11T13:34:49.860Z,1.70
2018-03-11T13:37:18.203Z,1.60
2018-03-11T13:42:48.178Z,1.37
2018-03-11T13:45:27.738Z,1.50
2018-03-11T13:47:55.739Z,1.50
2018-03-11T13:50:23.881Z,1.80
2018-03-11T13:53:03.627Z,2.00
2018-03-11T13:55:33.022Z,1.60
2018-03-11T13:58:12.597Z,1.57
2018-03-11T14:00:42.185Z,1.80
2018-03-11T14:03:10.751Z,2.20
2018-03-11T14:05:38.768Z,1.60
2018-03-11T14:08:06.781Z,1.83
2018-03-11T14:10:35.090Z,2.10
2018-03-11T14:13:03.047Z,1.90
2018-03-11T14:15:31.505Z,1.77
2018-03-11T14:17:59.642Z,1.90
2018-03-11T14:20:27.673Z,1.90
2018-03-11T14:22:55.618Z,2.50
2018-03-11T14:25:24.040Z,2.80
2018-03-11T14:27:53.313Z,3.17
2018-03-11T14:30:21.434Z,3.70
2018-03-11T14:32:50.175Z,3.70
2018-03-11T14:35:18.626Z,3.60
2018-03-11T14:37:47.118Z,3.07
2018-03-11T14:40:15.273Z,4.13
2018-03-11T14:42:44.114Z,3.93
2018-03-11T14:45:12.767Z,4.23
2018-03-11T14:47:40.787Z,3.73
2018-03-11T14:50:08.765Z,4.40
2018-03-11T14:52:36.952Z,3.70
2018-03-11T14:55:05.222Z,4.23
2018-03-11T14:57:33.535Z,3.97
2018-03-11T15:00:01.424Z,4.93
2018-03-11T15:02:29.443Z,4.30
2018-03-11T15:04:57.077Z,4.50
2018-03-11T15:07:24.899Z,4.20
2018-03-11T15:09:52.744Z,3.60
2018-03-11T15:12:20.773Z,4.30
2018-03-11T15:14:48.514Z,5.20
2018-03-11T15:17:17.067Z,7.10
2018-03-11T15:19:44.697Z,6.80
2018-03-11T15:22:12.193Z,6.43
2018-03-11T15:24:39.641Z,7.80
2018-03-11T15:27:07.108Z,6.20
2018-03-11T15:29:34.555Z,7.63
2018-03-11T15:32:02.011Z,5.53
2018-03-11T15:34:29.475Z,6.30
2018-03-11T15:36:56.927Z,5.90
2018-03-11T15:39:24.441Z,5.90
2018-03-11T15:41:51.912Z,5.50
2018-03-11T15:44:19.385Z,6.00
2018-03-11T15:46:46.849Z,6.47
2018-03-11T15:49:14.304Z,5.70
2018-03-11T15:51:41.776Z,5.87
2018-03-11T15:54:09.239Z,6.00
2018-03-11T15:56:36.716Z,6.10
2018-03-11T15:59:04.940Z,5.40
2018-03-11T16:01:32.409Z,6.17
2018-03-11T16:03:59.868Z,6.50
2018-03-11T16:06:27.323Z,6.03
2018-03-11T16:08:54.780Z,6.50
2018-03-11T16:11:22.241Z,5.70
2018-03-11T16:13:49.696Z,6.83
2018-03-11T16:16:17.241Z,6.43
2018-03-11T16:18:45.504Z,6.80
2018-03-11T16:21:12.961Z,5.83
2018-03-11T16:23:40.462Z,6.50
2018-03-11T16:26:07.912Z,8.13
2018-03-11T16:28:35.386Z,7.40
2018-03-11T16:31:02.840Z,6.43
2018-03-11T16:33:30.297Z,8.10
2018-03-11T16:35:58.554Z,7.97
2018-03-11T16:38:26.032Z,19.37
2018-03-11T16:40:54.263Z,32.20
2018-03-11T16:43:21.727Z,12.40
2018-03-11T16:45:49.196Z,11.83
2018-03-11T16:48:16.669Z,10.37
2018-03-11T16:50:44.860Z,9.10
2018-03-11T16:53:12.403Z,9.00
2018-03-11T16:55:39.859Z,10.70
2018-03-11T16:58:07.328Z,12.77
2018-03-11T17:00:35.563Z,11.90
2018-03-11T17:03:03.021Z,11.60
2018-03-11T17:05:30.472Z,10.17
2018-03-11T17:07:57.944Z,8.13
2018-03-11T17:10:25.489Z,9.40
2018-03-11T17:12:53.056Z,9.57
2018-03-11T17:15:21.323Z,9.03
2018-03-11T17:17:48.784Z,9.70
2018-03-11T17:20:16.248Z,14.50
2018-03-11T17:22:43.721Z,18.20
2018-03-11T17:25:11.175Z,26.97
2018-03-11T17:27:38.660Z,14.57
2018-03-11T17:30:06.112Z,13.30
2018-03-11T17:32:33.567Z,10.80
2018-03-11T17:35:01.792Z,9.00
2018-03-11T17:37:29.266Z,7.90
2018-03-11T17:39:56.724Z,7.90
2018-03-11T17:42:24.172Z,7.83
2018-03-11T17:44:51.678Z,6.17
2018-03-11T17:47:19.858Z,7.70
2018-03-11T17:49:47.709Z,10.30
2018-03-11T17:52:15.165Z,10.20
2018-03-11T17:54:43.404Z,11.30
2018-03-11T17:57:10.854Z,8.40
2018-03-11T17:59:38.725Z,8.23
2018-03-11T18:02:06.236Z,8.93
2018-03-11T18:04:33.636Z,10.13
2018-03-11T18:07:01.092Z,9.93
2018-03-11T18:09:29.485Z,10.00
2018-03-11T18:11:57.004Z,10.10
2018-03-11T18:14:24.506Z,7.80
2018-03-11T18:16:51.931Z,7.80
2018-03-11T18:19:19.405Z,7.50
2018-03-11T18:21:47.642Z,6.07
2018-03-11T18:24:15.098Z,6.10
2018-03-11T18:26:42.556Z,6.20
2018-03-11T18:29:10.033Z,6.10
2018-03-11T18:31:37.511Z,6.07
2018-03-11T18:34:04.998Z,6.33
2018-03-11T18:36:32.467Z,6.97
2018-03-11T18:38:59.930Z,7.00
2018-03-11T18:41:28.245Z,8.00
2018-03-11T18:43:55.703Z,8.90
2018-03-11T18:46:23.593Z,7.30
2018-03-11T18:48:51.824Z,8.57
2018-03-11T18:51:19.681Z,9.10
2018-03-11T18:53:48.460Z,9.93
2018-03-11T18:56:16.679Z,10.30
2018-03-11T18:58:44.962Z,10.80
2018-03-11T19:01:13.236Z,11.50
2018-03-11T19:03:41.500Z,10.73
2018-03-11T19:06:09.725Z,11.40
2018-03-11T19:08:37.940Z,12.60
2018-03-11T19:11:06.180Z,10.90
2018-03-11T19:13:34.403Z,12.70
2018-03-11T19:16:03.445Z,11.13
2018-03-11T19:18:31.966Z,10.93
2018-03-11T19:20:59.439Z,10.90
2018-03-11T19:23:28.244Z,11.90
2018-03-11T19:25:56.480Z,11.30
2018-03-11T19:28:24.339Z,11.60
2018-03-11T19:30:52.569Z,10.10
2018-03-11T19:33:21.371Z,9.07
2018-03-11T19:35:49.599Z,7.70
2018-03-11T19:38:19.114Z,8.40
2018-03-11T19:40:48.192Z,7.70
2018-03-11T19:43:16.169Z,7.67
2018-03-11T19:45:43.757Z,9.00
2018-03-11T19:48:12.719Z,9.30
2018-03-11T19:50:40.564Z,8.20
2018-03-11T19:53:08.015Z,8.17
2018-03-11T19:55:35.876Z,7.93
2018-03-11T19:58:04.094Z,8.73
2018-03-11T20:00:31.555Z,8.40
2018-03-11T20:03:00.665Z,7.70
2018-03-11T20:05:29.819Z,7.27
2018-03-11T20:07:57.622Z,7.40
2018-03-11T20:10:25.434Z,8.33
2018-03-11T20:12:55.247Z,7.93
2018-03-11T20:15:24.317Z,6.13
2018-03-11T20:17:53.353Z,6.20
2018-03-11T20:20:22.119Z,7.30
2018-03-11T20:22:49.598Z,7.40
2018-03-11T20:25:17.100Z,7.50
2018-03-11T20:27:44.553Z,6.90
2018-03-11T20:30:12.398Z,8.20
2018-03-11T20:32:40.634Z,9.13
2018-03-11T20:35:08.093Z,9.97
2018-03-11T20:37:35.564Z,10.43
2018-03-11T20:40:03.021Z,11.67
2018-03-11T20:42:30.679Z,11.17
2018-03-11T20:44:59.328Z,9.20
2018-03-11T20:47:26.829Z,9.20
2018-03-11T20:49:54.404Z,9.10
2018-03-11T20:52:22.995Z,9.00
2018-03-11T20:54:50.855Z,9.43
2018-03-11T20:57:19.079Z,10.10
2018-03-11T20:59:47.296Z,9.47
2018-03-11T21:02:15.530Z,10.07
2018-03-11T21:04:43.394Z,11.83
2018-03-11T21:07:10.885Z,10.33
2018-03-11T21:09:39.103Z,10.07
2018-03-11T21:12:06.572Z,9.30
2018-03-11T21:14:34.020Z,8.87
2018-03-11T21:17:01.481Z,9.77
2018-03-11T21:19:29.352Z,11.30
2018-03-11T21:21:56.823Z,10.90
2018-03-11T21:24:24.287Z,11.00
2018-03-11T21:26:52.518Z,11.00
2018-03-11T21:29:19.992Z,11.40
2018-03-11T21:31:47.550Z,11.70
2018-03-11T21:34:15.783Z,10.00
2018-03-11T21:36:43.645Z,10.63
2018-03-11T21:39:11.116Z,10.93
2018-03-11T21:41:38.964Z,11.63
2018-03-11T21:44:06.428Z,13.40
2018-03-11T21:46:34.672Z,13.00
2018-03-11T21:49:02.117Z,11.60
2018-03-11T21:51:30.335Z,12.03
2018-03-11T21:53:58.946Z,13.13
2018-03-11T21:56:26.401Z,12.10
2018-03-11T21:58:53.868Z,10.53
2018-03-11T22:01:22.469Z,11.27
2018-03-11T22:03:50.319Z,10.10
2018-03-11T22:06:18.902Z,10.83
2018-03-11T22:08:46.365Z,11.87
2018-03-11T22:11:13.815Z,12.13
2018-03-11T22:13:41.284Z,11.90
2018-03-11T22:16:08.735Z,12.10
2018-03-11T22:18:36.204Z,12.10
2018-03-11T22:21:03.648Z,15.20
2018-03-11T22:23:31.108Z,18.67
2018-03-11T22:25:58.556Z,17.13
2018-03-11T22:28:26.015Z,18.20
2018-03-11T22:30:54.600Z,16.53
2018-03-11T22:33:22.056Z,17.03
2018-03-11T22:35:49.500Z,16.53
2018-03-11T22:38:17.766Z,16.07
2018-03-11T22:40:45.989Z,13.90
2018-03-11T22:43:13.452Z,13.53
2018-03-11T22:45:40.899Z,13.53
2018-03-11T22:48:08.351Z,13.80
2018-03-11T22:50:35.802Z,15.63
2018-03-11T22:53:03.268Z,14.93
2018-03-11T22:55:30.712Z,16.20
2018-03-11T22:57:58.180Z,11.47
2018-03-11T23:00:25.632Z,12.47
2018-03-11T23:02:53.087Z,11.00
2018-03-11T23:05:20.531Z,10.90
2018-03-11T23:07:48.764Z,10.90
2018-03-11T23:10:16.219Z,10.17
2018-03-11T23:12:43.663Z,12.83
2018-03-11T23:15:11.883Z,12.40
2018-03-11T23:17:39.335Z,13.93
2018-03-11T23:20:06.804Z,14.27
2018-03-11T23:22:34.256Z,13.77
2018-03-11T23:25:01.715Z,13.63
2018-03-11T23:27:29.172Z,13.50
2018-03-11T23:29:56.635Z,12.87
2018-03-11T23:32:24.081Z,14.00
2018-03-11T23:34:51.534Z,15.30
2018-03-11T23:37:19.390Z,15.30
2018-03-11T23:39:46.849Z,15.53
2018-03-11T23:42:14.305Z,16.47
2018-03-11T23:44:41.763Z,15.80
2018-03-11T23:47:09.231Z,15.80
2018-03-11T23:49:37.095Z,15.53
2018-03-11T23:52:04.563Z,15.63
2018-03-11T23:54:32.788Z,13.53
2018-03-11T23:57:00.233Z,11.47
2018-03-11T23:59:28.465Z,11.03
